Latest Weather Observations for Coonawarra

IDS60801

Issued at 5:01 am CDT Friday 24 November 2017 (issued every 30 minutes, with the page automatically refreshed every 10 minutes)

About weather observations | Map of weather stations | Latest weather observations for SA | Other Formats
Station Details ID: 026091 Name: COONAWARRA Lat: -37.29 Lon: 140.83 Height: 57.0 m
Data from the previous 72 hours. | See also: Recent months at Coonawarra
Date/Time
CDT
Temp
°C
App
Temp
°C
Dew
Point
°C
Rel
Hum
%
Delta-T
°C
Wind Press
QNH
hPa
Press
MSL
hPa
Rain since
9am
mm
Dir  Spd
km/h
Gust
km/h
Spd
kts
Gust
kts
24/05:00am 17.0 18.7 16.2 95 0.5 S 2 6 1 3 1011.4 1011.3 8.2
24/04:30am 17.0 17.9 16.2 95 0.5 S 6 7 3 4 1011.3 1011.2 8.2
24/04:00am 16.8 17.5 16.1 96 0.4 S 7 9 4 5 1011.3 1011.2 8.2
24/03:30am 16.8 18.9 16.3 97 0.3 CALM 0 0 0 0 1011.2 1011.1 8.2
24/03:00am 16.5 18.4 15.8 96 0.4 CALM 0 0 0 0 1010.9 1010.8 8.2
24/02:30am 16.5 18.3 15.6 94 0.5 CALM 0 0 0 0 1011.2 1011.1 8.2
24/02:00am 16.8 18.4 16.0 95 0.5 SE 2 6 1 3 1010.9 1010.8 8.2
24/01:30am 16.7 17.3 15.9 95 0.5 E 7 9 4 5 1011.0 1010.9 8.2
24/01:00am 15.9 17.6 15.2 96 0.4 CALM 0 0 0 0 1011.4 1011.3 8.2
24/12:30am 15.9 17.5 15.0 94 0.5 CALM 0 0 0 0 1011.5 1011.4 8.2
24/12:00am 16.1 16.7 15.2 94 0.5 NW 6 7 3 4 1011.7 1011.6 8.2
 
Date/Time
CDT
Temp
°C
App
Temp
°C
Dew
Point
°C
Rel
Hum
%
Delta-T
°C
Wind Press
QNH
hPa
Press
MSL
hPa
Rain since
9am
mm
Dir  Spd
km/h
Gust
km/h
Spd
kts
Gust
kts
23/11:30pm 16.6 18.5 15.7 94 0.5 CALM 0 0 0 0 1011.7 1011.6 8.2
23/11:00pm 16.9 18.2 16.1 95 0.5 NNE 4 9 2 5 1011.5 1011.4 8.2
23/10:30pm 17.2 18.9 16.2 94 0.6 NE 2 7 1 4 1011.4 1011.3 8.2
23/10:00pm 17.3 18.5 15.9 91 0.8 NNW 4 7 2 4 1011.1 1011.0 8.2
23/09:30pm 17.2 17.9 16.0 93 0.7 NW 7 9 4 5 1011.2 1011.1 8.2
23/09:00pm 17.7 18.4 16.2 91 0.9 W 7 9 4 5 1011.4 1011.3 8.2
23/08:30pm 18.3 19.1 15.9 86 1.4 NNE 6 7 3 4 1011.1 1011.0 8.2
23/08:00pm 18.8 18.2 15.6 82 1.9 N 13 20 7 11 1011.1 1011.0 8.2
23/07:30pm 19.6 17.9 14.6 73 2.9 SSE 17 30 9 16 1009.3 1009.2 8.2
23/07:16pm 19.4 15.5 14.4 73 2.9 SSE 28 46 15 25 1008.3 1008.2 8.2
23/07:00pm 18.5 15.4 15.5 83 1.8 S 26 35 14 19 1008.4 1008.3 8.2
23/06:30pm 18.8 16.5 15.6 82 1.9 S 22 32 12 17 1010.1 1010.0 7.4
23/06:00pm 19.4 18.6 16.1 81 2.0 SE 15 24 8 13 1011.4 1011.3 6.4
23/05:30pm 19.2 17.3 15.8 81 2.0 WNW 20 33 11 18 1011.3 1011.2 3.2
23/05:07pm 20.1 16.4 16.1 78 2.4 NW 30 54 16 29 1010.0 1009.9 0.6
23/05:05pm 20.9 17.4 15.5 71 3.2 WNW 28 48 15 26 1010.0 1009.9 0.4
23/05:00pm 25.9 22.4 13.3 45 7.4 SW 24 41 13 22 1009.7 1009.6 0.0
23/04:30pm 28.7 22.5 11.4 34 10.0 SSW 35 46 19 25 1008.0 1007.9 0.0
23/04:00pm 29.3 24.3 12.3 35 10.0 SW 30 43 16 23 1007.8 1007.7 0.0
23/03:30pm 30.7 27.9 12.7 33 10.7 SSW 19 24 10 13 1007.9 1007.8 0.0
23/03:00pm 30.2 27.5 11.7 32 10.8 SSW 17 22 9 12 1008.2 1008.1 0.0
23/02:30pm 30.8 28.8 11.6 30 11.2 SSW 13 19 7 10 1008.5 1008.4 0.0
23/02:00pm 30.3 28.4 11.8 32 10.8 SSW 13 19 7 10 1008.8 1008.7 0.0
23/01:30pm 30.0 27.9 12.3 33 10.4 S 15 24 8 13 1009.1 1009.0 0.0
23/01:00pm 29.7 27.4 11.7 33 10.5 SSW 15 24 8 13 1009.4 1009.3 0.0
23/12:30pm 29.2 27.7 13.0 37 9.6 S 13 20 7 11 1009.7 1009.6 0.0
23/12:00pm 29.0 26.9 12.3 35 9.8 SW 15 22 8 12 1009.8 1009.7 0.0
23/11:30am 28.6 26.7 11.7 35 9.8 SSW 13 20 7 11 1010.0 1009.9 0.0
23/11:00am 27.8 25.7 12.4 38 9.0 SSW 15 24 8 13 1010.3 1010.2 0.0
23/10:30am 27.0 26.0 13.5 43 8.0 SSW 11 17 6 9 1010.4 1010.3 0.0
23/10:00am 26.0 24.7 12.6 43 7.8 SW 11 15 6 8 1010.5 1010.4 0.0
23/09:30am 26.0 26.1 13.9 47 7.2 SW 6 11 3 6 1010.4 1010.3 0.0
23/09:00am 24.0 24.2 14.8 56 5.5 N 7 11 4 6 1010.5 1010.4 0.0
23/08:30am 23.0 24.6 14.8 60 4.9 CALM 0 6 0 3 1010.5 1010.4 0.0
23/08:00am 21.2 22.5 15.1 68 3.6 NNE 2 7 1 4 1010.1 1010.0 0.0
23/07:30am 19.0 20.6 14.9 77 2.4 CALM 0 0 0 0 1010.0 1009.9 0.0
23/07:00am 16.8 18.0 13.8 82 1.7 CALM 0 0 0 0 1009.8 1009.7 0.0
23/06:30am 15.3 14.5 13.0 86 1.3 E 9 13 5 7 1009.4 1009.3 0.0
23/06:00am 14.1 13.6 12.5 90 0.9 NE 7 15 4 8 1009.5 1009.4 0.0
23/05:30am 14.3 13.3 12.3 88 1.1 NNW 9 15 5 8 1009.3 1009.2 0.0
23/05:00am 15.5 14.9 12.2 81 1.8 NNW 7 13 4 7 1008.9 1008.8 0.0
23/04:30am 16.7 13.5 9.9 64 3.6 NNW 17 20 9 11 1008.9 1008.8 0.0
23/04:00am 15.6 14.5 10.5 71 2.7 N 7 11 4 6 1008.6 1008.5 0.0
23/03:30am 16.8 15.5 9.3 61 3.9 N 6 7 3 4 1008.5 1008.4 0.0
23/03:00am 19.5 17.2 7.6 46 6.1 NNE 9 19 5 10 1008.6 1008.5 0.0
23/02:30am 22.4 18.9 5.5 33 8.5 NNE 13 20 7 11 1008.5 1008.4 0.0
23/02:00am 22.7 19.2 5.4 32 8.7 NE 13 17 7 9 1008.1 1008.0 0.0
23/01:30am 23.1 19.1 4.9 30 9.1 ENE 15 19 8 10 1008.1 1008.0 0.0
23/01:00am 23.4 19.4 5.1 30 9.2 NE 15 19 8 10 1008.5 1008.4 0.0
23/12:30am 23.0 19.6 5.9 33 8.7 ENE 13 17 7 9 1008.5 1008.4 0.0
23/12:00am 23.5 20.1 5.8 32 9.0 NE 13 19 7 10 1008.7 1008.6 0.0
 
Date/Time
CDT
Temp
°C
App
Temp
°C
Dew
Point
°C
Rel
Hum
%
Delta-T
°C
Wind Press
QNH
hPa
Press
MSL
hPa
Rain since
9am
mm
Dir  Spd
km/h
Gust
km/h
Spd
kts
Gust
kts
22/11:30pm 24.0 20.3 6.1 31 9.2 ENE 15 20 8 11 1008.7 1008.6 0.0
22/11:00pm 24.0 20.8 6.7 33 9.0 ENE 13 19 7 10 1008.8 1008.7 0.0
22/10:30pm 24.6 20.9 6.2 30 9.5 ENE 15 20 8 11 1008.8 1008.7 0.0
22/10:00pm 24.7 21.5 6.9 32 9.3 ENE 13 17 7 9 1008.9 1008.8 0.0
22/09:30pm 25.1 21.9 7.0 31 9.5 E 13 15 7 8 1008.9 1008.8 0.0
22/09:00pm 25.8 22.7 7.3 30 9.8 E 13 15 7 8 1008.9 1008.8 0.0
22/08:30pm 26.0 23.6 8.5 33 9.5 E 11 13 6 7 1008.7 1008.6 0.0
22/08:00pm 27.2 25.1 9.6 33 9.8 ENE 11 13 6 7 1008.8 1008.7 0.0
22/07:30pm 28.9 26.8 9.7 30 10.8 E 11 13 6 7 1008.7 1008.6 0.0
22/07:00pm 30.2 27.8 8.6 26 12.0 ENE 11 15 6 8 1008.6 1008.5 0.0
22/06:30pm 32.2 29.0 5.3 18 14.3 NE 11 19 6 10 1008.4 1008.3 0.0
22/06:00pm 32.6 28.7 5.5 18 14.5 NE 15 22 8 12 1008.5 1008.4 0.0
22/05:30pm 32.9 28.6 5.4 18 14.7 NNE 17 26 9 14 1008.8 1008.7 0.0
22/05:00pm 33.1 29.1 5.1 17 14.9 NNE 15 24 8 13 1009.0 1008.9 0.0
22/04:30pm 33.4 29.6 4.0 16 15.4 NNE 13 20 7 11 1009.2 1009.1 0.0
22/04:00pm 33.3 29.2 4.5 16 15.2 NNE 15 28 8 15 1009.6 1009.5 0.0
22/03:30pm 33.3 28.3 3.4 15 15.5 NE 19 30 10 16 1009.9 1009.8 0.0
22/03:00pm 33.3 28.3 3.4 15 15.5 NE 19 39 10 21 1010.3 1010.2 0.0
22/02:30pm 32.9 27.5 1.2 13 15.8 N 19 30 10 16 1010.9 1010.8 0.0
22/02:00pm 32.9 27.9 3.6 16 15.2 NE 19 32 10 17 1011.3 1011.2 0.0
22/01:30pm 33.0 28.1 4.2 16 15.1 NNE 19 32 10 17 1011.6 1011.5 0.0
22/01:00pm 32.8 27.8 4.4 17 14.9 NE 20 33 11 18 1012.1 1012.0 0.0
22/12:30pm 32.5 27.8 6.2 19 14.2 NNE 20 32 11 17 1012.4 1012.3 0.0
22/12:00pm 31.9 26.3 5.6 19 14.0 NNE 24 33 13 18 1012.8 1012.7 0.0
22/11:30am 31.4 25.4 5.3 19 13.8 NNE 26 41 14 22 1013.1 1013.0 0.0
22/11:00am 30.5 24.1 5.1 20 13.3 NNE 28 41 15 22 1013.5 1013.4 0.0
22/10:30am 29.6 24.6 6.3 23 12.4 NNE 22 32 12 17 1013.8 1013.7 0.0
22/10:00am 28.5 24.3 8.1 27 11.1 NNE 20 30 11 16 1014.0 1013.9 0.0
22/09:30am 27.3 23.7 8.4 30 10.3 NNE 17 26 9 14 1014.2 1014.1 0.0
22/09:00am 26.2 23.0 8.5 32 9.6 NNE 15 22 8 12 1014.3 1014.2 0.0
22/08:30am 24.7 21.4 8.0 34 8.9 NNE 15 26 8 14 1014.3 1014.2 0.0
22/08:00am 23.2 19.4 7.5 36 8.2 NNE 17 24 9 13 1014.2 1014.1 0.0
22/07:30am 22.3 17.9 6.7 36 8.0 NE 19 24 10 13 1013.9 1013.8 0.0
22/07:00am 21.4 16.9 5.9 36 7.8 NE 19 28 10 15 1013.6 1013.5 0.0
22/06:30am 20.7 16.8 5.3 36 7.6 NE 15 20 8 11 1013.5 1013.4 0.0
22/06:00am 20.3 15.9 5.0 36 7.5 NE 17 22 9 12 1013.2 1013.1 0.0
22/05:30am 20.5 16.1 4.7 35 7.7 NE 17 24 9 13 1013.1 1013.0 0.0
22/05:00am 20.4 16.1 5.2 37 7.5 NE 17 22 9 12 1013.1 1013.0 0.0
22/04:30am 21.1 16.3 4.5 33 8.1 NE 19 26 10 14 1012.9 1012.8 0.0
22/04:00am 21.7 16.8 4.3 32 8.5 NE 19 26 10 14 1012.7 1012.6 0.0
22/03:30am 21.7 17.4 5.2 34 8.2 NE 17 26 9 14 1012.7 1012.6 0.0
22/03:00am 21.4 17.6 5.9 36 7.8 NE 15 20 8 11 1012.7 1012.6 0.0
22/02:30am 21.0 17.7 6.6 39 7.3 NE 13 17 7 9 1012.9 1012.8 0.0
22/02:00am 20.5 17.5 7.5 43 6.7 NE 13 15 7 8 1013.0 1012.9 0.0
22/01:30am 20.5 17.6 8.2 45 6.4 NE 13 15 7 8 1013.1 1013.0 0.0
22/01:00am 22.4 18.8 6.6 36 8.1 NE 15 19 8 10 1013.2 1013.1 0.0
22/12:30am 23.1 19.3 6.0 33 8.7 NE 15 20 8 11 1013.5 1013.4 0.0
22/12:00am 22.7 19.5 6.8 35 8.2 NE 13 19 7 10 1013.7 1013.6 0.0
 
Date/Time
CDT
Temp
°C
App
Temp
°C
Dew
Point
°C
Rel
Hum
%
Delta-T
°C
Wind Press
QNH
hPa
Press
MSL
hPa
Rain since
9am
mm
Dir  Spd
km/h
Gust
km/h
Spd
kts
Gust
kts
21/11:30pm 21.7 18.8 8.2 42 7.1 ENE 13 15 7 8 1013.8 1013.7 0.0
21/11:00pm 22.0 19.3 8.9 43 7.0 ENE 13 15 7 8 1013.9 1013.8 0.0
21/10:30pm 22.4 20.6 10.8 47 6.4 E 11 15 6 8 1014.1 1014.0 0.0
21/10:00pm 22.6 21.1 11.8 50 6.1 ESE 11 15 6 8 1014.2 1014.1 0.0
21/09:30pm 23.0 21.6 12.1 50 6.2 ESE 11 15 6 8 1014.2 1014.1 0.0
21/09:00pm 24.2 22.3 11.9 46 7.0 ESE 13 17 7 9 1014.0 1013.9 0.0
21/08:30pm 25.0 24.2 13.0 47 7.0 E 9 11 5 6 1013.8 1013.7 0.0
21/08:00pm 27.5 26.1 12.2 38 8.9 E 11 11 6 6 1013.8 1013.7 0.0
21/07:30pm 29.4 29.4 14.2 39 9.2 E 7 9 4 5 1013.6 1013.5 0.0
21/07:00pm 30.4 29.3 12.0 32 10.8 NE 9 13 5 7 1013.4 1013.3 0.0
21/06:30pm 31.4 30.0 11.0 28 11.8 ENE 9 13 5 7 1013.3 1013.2 0.0
21/06:00pm 30.6 28.9 10.0 28 11.7 NE 9 13 5 7 1013.3 1013.2 0.0
21/05:30pm 32.0 29.6 9.9 25 12.6 ENE 13 17 7 9 1013.5 1013.4 0.0
21/05:00pm 32.0 30.0 10.2 26 12.5 NE 11 19 6 10 1013.8 1013.7 0.0
21/04:30pm 32.2 30.0 9.2 24 13.0 ENE 11 17 6 9 1014.1 1014.0 0.0
21/04:00pm 30.7 27.7 9.1 26 12.1 NE 15 20 8 11 1014.3 1014.2 0.0
21/03:30pm 32.1 28.8 8.1 22 13.3 N 15 22 8 12 1014.6 1014.5 0.0
21/03:00pm 32.4 29.8 9.2 24 13.1 NE 13 20 7 11 1014.9 1014.8 0.0
21/02:30pm 32.2 28.4 9.2 24 13.0 NNE 19 28 10 15 1015.2 1015.1 0.0
21/02:00pm 32.2 29.3 9.7 25 12.8 NE 15 28 8 15 1015.5 1015.4 0.0
21/01:30pm 31.9 28.2 9.5 25 12.7 NNE 19 28 10 15 1016.0 1015.9 0.0
21/01:00pm 31.3 27.0 7.8 23 12.9 NNE 20 30 11 16 1016.5 1016.5 0.0
21/12:30pm 31.2 27.0 8.2 24 12.7 N 20 28 11 15 1016.7 1016.7 0.0
21/12:00pm 31.0 27.1 9.3 26 12.2 N 20 32 11 17 1017.1 1017.1 0.0
21/11:30am 30.0 25.8 8.4 26 11.9 NNE 20 30 11 16 1017.3 1017.3 0.0
21/11:00am 29.9 26.4 10.1 29 11.2 NNE 19 32 10 17 1017.5 1017.5 0.0
21/10:30am 29.0 25.5 10.2 31 10.6 NNE 19 28 10 15 1017.6 1017.6 0.0
21/10:00am 27.8 25.0 11.4 36 9.4 NNE 17 22 9 12 1017.6 1017.6 0.0
21/09:30am 26.9 23.6 10.8 36 9.1 NNE 19 28 10 15 1017.9 1017.9 0.0
21/09:00am 26.3 23.5 11.3 39 8.5 NNE 17 24 9 13 1018.1 1018.1 0.0
21/08:30am 24.9 21.0 9.5 37 8.4 NNE 20 26 11 14 1018.1 1018.1 0.0
21/08:00am 23.9 20.7 9.8 40 7.7 NE 17 22 9 12 1018.1 1018.1 0.0
21/07:30am 22.9 18.9 9.1 41 7.4 NNE 20 28 11 15 1018.1 1018.1 0.0
21/07:00am 21.8 17.6 8.3 42 7.1 NNE 20 30 11 16 1017.9 1017.9 0.0
21/06:30am 20.9 17.3 8.3 44 6.6 NE 17 30 9 16 1017.8 1017.8 0.0
21/06:00am 19.2 16.5 8.9 51 5.4 NE 13 19 7 10 1017.6 1017.6 0.0
21/05:30am 19.2 16.5 8.9 51 5.4 NE 13 20 7 11 1017.2 1017.2 0.0

Other Formats:

Comma delimited format used in spreadsheet applications
http://www.bom.gov.au/fwo/IDS60801/IDS60801.94817.axf

JavaScript Object Notation format (JSON) in row-major order
http://www.bom.gov.au/fwo/IDS60801/IDS60801.94817.json